CCGS Cape Naden — CFN5482 — position and weather

sailwx.info

Track history (hours):
 
Tides and Currents Weather Stations Pressure Air Temp Water Temp Dewpoint Dewpoint Depression Visibility Wind Speed Wind Dir Waves Ship Positions

CCGS Cape Naden

Last reported at 2016-Jun-25 19:33 UTC. Time now 2016-Jun-25 19:39 UTC.
Position N 48°51' W 123°30'.

Length 15 m; draft 0.8 m.

Type: SAR. MMSI: 316017162.

Date/timePositionNaut miles runAvg speedWind from/ knotsBaromVisibWave heightAir tempDewpointWater temp
2016-Jun-25 19:33N 48°51' W 123°30'0 0.0
2016-Jun-25 18:33N 48°51' W 123°30'0 0.0
2016-Jun-25 17:33N 48°51' W 123°30'0 0.0
2016-Jun-25 16:33N 48°51' W 123°30'0 0.0
2016-Jun-25 15:33N 48°51' W 123°30'0 0.0
2016-Jun-25 14:32N 48°51' W 123°30'0 0.0
2016-Jun-25 13:29N 48°51' W 123°30'0 0.0
2016-Jun-25 12:27N 48°51' W 123°30'0 0.0
2016-Jun-25 10:09N 48°51' W 123°30'0 0.0
2016-Jun-25 09:33N 48°51' W 123°30'0 0.0
2016-Jun-25 08:25N 48°51' W 123°30'0 0.0
2016-Jun-25 07:19N 48°51' W 123°30'0 0.0
2016-Jun-25 06:20N 48°51' W 123°30'0 0.0
2016-Jun-25 05:30N 48°51' W 123°30'0 0.0
2016-Jun-25 04:30N 48°51' W 123°30'0 0.0
2016-Jun-25 03:33N 48°51' W 123°30'0 0.0
2016-Jun-25 02:32N 48°51' W 123°30'0 0.0
2016-Jun-25 01:33N 48°51' W 123°30'0 0.0
2016-Jun-25 00:26N 48°51' W 123°30'0 0.0
2016-Jun-24 21:30N 48°51' W 123°30'11 4.9
2016-Jun-24 19:19N 49°02' W 123°35'810.8
2016-Jun-24 18:33N 49°09' W 123°39'19 6.3
2016-Jun-24 15:33N 48°51' W 123°30'0 0.0
2016-Jun-24 14:33N 48°51' W 123°30'0 0.0
2016-Jun-24 13:33N 48°51' W 123°30'0 0.0
2016-Jun-24 12:34N 48°51' W 123°30'0 0.0
2016-Jun-24 11:33N 48°51' W 123°30'0 0.0
2016-Jun-24 10:34N 48°51' W 123°30'0 0.0
2016-Jun-24 09:31N 48°51' W 123°30'0 0.0
2016-Jun-24 08:33N 48°51' W 123°30'0 0.0
2016-Jun-24 07:29N 48°51' W 123°30'0 0.0
2016-Jun-24 04:30N 48°51' W 123°30'0 0.0
2016-Jun-24 03:33N 48°51' W 123°30'0 0.0
2016-Jun-24 02:33N 48°51' W 123°30'0 0.0
2016-Jun-24 01:33N 48°51' W 123°30'0 0.0
2016-Jun-24 00:33N 48°51' W 123°30'1 0.0
2016-Jun-22 22:33N 48°51' W 123°28'1 0.2
2016-Jun-22 16:31N 48°51' W 123°30'0 0.0
2016-Jun-22 15:32N 48°51' W 123°30'0 0.0
2016-Jun-22 14:20N 48°51' W 123°30'0 0.0
2016-Jun-22 13:32N 48°51' W 123°30'0 0.0
2016-Jun-22 12:33N 48°51' W 123°30'0 0.0
2016-Jun-22 11:29N 48°51' W 123°30'0 0.0
2016-Jun-22 10:17N 48°51' W 123°30'0 0.0
2016-Jun-22 09:32N 48°51' W 123°30'0 0.0
2016-Jun-22 07:32N 48°51' W 123°30'0 0.0
2016-Jun-22 06:15N 48°51' W 123°30'0 0.0
2016-Jun-22 05:31N 48°51' W 123°30'0 0.0
2016-Jun-22 04:33N 48°51' W 123°30'0 0.0
2016-Jun-22 03:33N 48°51' W 123°30'0 0.0
2016-Jun-22 02:33N 48°51' W 123°30'0 0.0
2016-Jun-22 01:28N 48°51' W 123°30'0 0.0
2016-Jun-22 00:33N 48°51' W 123°30'0 0.0
2016-Jun-21 23:33N 48°51' W 123°30'0 0.0
2016-Jun-21 22:24N 48°51' W 123°30'0 0.0
2016-Jun-21 21:31N 48°51' W 123°30'0 0.0
2016-Jun-21 15:23N 48°51' W 123°30'0 0.0
2016-Jun-21 13:29N 48°51' W 123°30'0 0.0
2016-Jun-21 04:05N 48°51' W 123°30'0 0.0
2016-Jun-21 03:33N 48°51' W 123°30'0 0.0
2016-Jun-21 02:33N 48°51' W 123°30'0 0.0
2016-Jun-21 01:31N 48°51' W 123°30'0 0.0
2016-Jun-20 02:17N 48°51' W 123°30'0 0.0
2016-Jun-20 01:32N 48°51' W 123°30'0 0.0
2016-Jun-20 00:33N 48°51' W 123°30'0 0.0
2016-Jun-19 23:24N 48°51' W 123°30'0 0.3
2016-Jun-19 22:33N 48°51' W 123°30'1210.8
2016-Jun-19 21:27N 48°45' W 123°14'910.1
2016-Jun-19 20:33N 48°50' W 123°25'3 0.4
2016-Jun-19 12:30N 48°51' W 123°30'0 0.0
2016-Jun-18 18:18N 48°51' W 123°30'0 0.0
2016-Jun-18 16:13N 48°51' W 123°30'0 0.0
2016-Jun-18 15:30N 48°51' W 123°30'0 0.0
2016-Jun-18 14:26N 48°51' W 123°30'0 0.0
2016-Jun-18 13:15N 48°51' W 123°30'0 0.0
2016-Jun-18 12:27N 48°51' W 123°30'0 0.0
2016-Jun-18 10:09N 48°51' W 123°30'0 0.0
2016-Jun-18 09:23N 48°51' W 123°30'0 0.0
2016-Jun-18 08:33N 48°51' W 123°30'0 0.0
2016-Jun-18 06:04N 48°51' W 123°30'0 0.0
2016-Jun-18 02:15N 48°51' W 123°30'0 0.0
2016-Jun-18 01:31N 48°51' W 123°30'0 0.0
2016-Jun-18 00:28N 48°51' W 123°30'0 0.0
2016-Jun-17 23:32N 48°51' W 123°30'0 0.0
2016-Jun-17 17:31N 48°51' W 123°30'0 0.0
2016-Jun-17 16:21N 48°51' W 123°30'0 0.0
2016-Jun-17 14:31N 48°51' W 123°30'0 0.0
2016-Jun-17 13:33N 48°51' W 123°30'0 0.0
2016-Jun-17 12:32N 48°51' W 123°30'0 0.0
2016-Jun-17 11:33N 48°51' W 123°30'0 0.0
2016-Jun-17 10:33N 48°51' W 123°30'0 0.0
2016-Jun-17 09:33N 48°51' W 123°30'0 0.0
2016-Jun-17 08:33N 48°51' W 123°30'0 0.0
2016-Jun-17 07:31N 48°51' W 123°30'0 0.0
2016-Jun-17 05:23N 48°51' W 123°30'0 0.0
2016-Jun-17 04:15N 48°51' W 123°30'0 0.0
2016-Jun-17 03:33N 48°51' W 123°30'0 0.0
2016-Jun-17 02:33N 48°51' W 123°30'0 0.0
2016-Jun-17 01:33N 48°51' W 123°30'0 0.0
2016-Jun-16 23:33N 48°51' W 123°30'0 0.0
2016-Jun-16 21:16N 48°51' W 123°30'2 0.7
2016-Jun-16 17:31N 48°52' W 123°26'2 2.4
2016-Jun-16 16:30N 48°51' W 123°30'0 0.0
2016-Jun-16 14:22N 48°51' W 123°30'0 0.0
2016-Jun-16 13:31N 48°51' W 123°30'0 0.0
2016-Jun-16 12:29N 48°51' W 123°30'0 0.0
2016-Jun-16 11:31N 48°51' W 123°30'0 0.0
2016-Jun-16 10:33N 48°51' W 123°30'0 0.0
2016-Jun-16 09:33N 48°51' W 123°30'0 0.0
2016-Jun-16 08:31N 48°51' W 123°30'0 0.0
2016-Jun-16 07:29N 48°51' W 123°30'0 0.0
2016-Jun-16 06:13N 48°51' W 123°30'0 0.0
2016-Jun-16 05:25N 48°51' W 123°30'0 0.0
2016-Jun-16 04:33N 48°51' W 123°30'0 0.0
2016-Jun-16 03:32N 48°51' W 123°30'0 0.0
2016-Jun-16 02:29N 48°51' W 123°30'0 0.0
2016-Jun-16 01:29N 48°51' W 123°30'0 0.0
2016-Jun-16 00:31N 48°51' W 123°30'0 0.0
2016-Jun-15 23:33N 48°51' W 123°30'0 0.0
2016-Jun-15 22:32N 48°51' W 123°30'0 0.0
2016-Jun-15 21:33N 48°51' W 123°30'0 0.0
2016-Jun-15 20:33N 48°51' W 123°30'0 0.0
2016-Jun-15 19:33N 48°51' W 123°30'  
Track history (hours):
 
Tides and Currents Weather Stations Pressure Air Temp Water Temp Dewpoint Dewpoint Depression Visibility Wind Speed Wind Dir Waves Ship Positions

CCGS Cape Naden

Last reported at 2016-Jun-25 19:33 UTC. Time now 2016-Jun-25 19:39 UTC.
Position N 48°51' W 123°30'.

Length 15 m; draft 0.8 m.

Type: SAR. MMSI: 316017162.

Date/timePositionNaut miles runAvg speedWind from/ knotsBaromVisibWave heightAir tempDewpointWater temp
2016-Jun-25 19:33N 48°51' W 123°30'0 0.0
2016-Jun-25 18:33N 48°51' W 123°30'0 0.0
2016-Jun-25 17:33N 48°51' W 123°30'0 0.0
2016-Jun-25 16:33N 48°51' W 123°30'0 0.0
2016-Jun-25 15:33N 48°51' W 123°30'0 0.0
2016-Jun-25 14:32N 48°51' W 123°30'0 0.0
2016-Jun-25 13:29N 48°51' W 123°30'0 0.0
2016-Jun-25 12:27N 48°51' W 123°30'0 0.0
2016-Jun-25 10:09N 48°51' W 123°30'0 0.0
2016-Jun-25 09:33N 48°51' W 123°30'0 0.0
2016-Jun-25 08:25N 48°51' W 123°30'0 0.0
2016-Jun-25 07:19N 48°51' W 123°30'0 0.0
2016-Jun-25 06:20N 48°51' W 123°30'0 0.0
2016-Jun-25 05:30N 48°51' W 123°30'0 0.0
2016-Jun-25 04:30N 48°51' W 123°30'0 0.0
2016-Jun-25 03:33N 48°51' W 123°30'0 0.0
2016-Jun-25 02:32N 48°51' W 123°30'0 0.0
2016-Jun-25 01:33N 48°51' W 123°30'0 0.0
2016-Jun-25 00:26N 48°51' W 123°30'0 0.0
2016-Jun-24 21:30N 48°51' W 123°30'11 4.9
2016-Jun-24 19:19N 49°02' W 123°35'810.8
2016-Jun-24 18:33N 49°09' W 123°39'19 6.3
2016-Jun-24 15:33N 48°51' W 123°30'0 0.0
2016-Jun-24 14:33N 48°51' W 123°30'0 0.0
2016-Jun-24 13:33N 48°51' W 123°30'0 0.0
2016-Jun-24 12:34N 48°51' W 123°30'0 0.0
2016-Jun-24 11:33N 48°51' W 123°30'0 0.0
2016-Jun-24 10:34N 48°51' W 123°30'0 0.0
2016-Jun-24 09:31N 48°51' W 123°30'0 0.0
2016-Jun-24 08:33N 48°51' W 123°30'0 0.0
2016-Jun-24 07:29N 48°51' W 123°30'0 0.0
2016-Jun-24 04:30N 48°51' W 123°30'0 0.0
2016-Jun-24 03:33N 48°51' W 123°30'0 0.0
2016-Jun-24 02:33N 48°51' W 123°30'0 0.0
2016-Jun-24 01:33N 48°51' W 123°30'0 0.0
2016-Jun-24 00:33N 48°51' W 123°30'1 0.0
2016-Jun-22 22:33N 48°51' W 123°28'1 0.2
2016-Jun-22 16:31N 48°51' W 123°30'0 0.0
2016-Jun-22 15:32N 48°51' W 123°30'0 0.0
2016-Jun-22 14:20N 48°51' W 123°30'0 0.0
2016-Jun-22 13:32N 48°51' W 123°30'0 0.0
2016-Jun-22 12:33N 48°51' W 123°30'0 0.0
2016-Jun-22 11:29N 48°51' W 123°30'0 0.0
2016-Jun-22 10:17N 48°51' W 123°30'0 0.0
2016-Jun-22 09:32N 48°51' W 123°30'0 0.0
2016-Jun-22 07:32N 48°51' W 123°30'0 0.0
2016-Jun-22 06:15N 48°51' W 123°30'0 0.0
2016-Jun-22 05:31N 48°51' W 123°30'0 0.0
2016-Jun-22 04:33N 48°51' W 123°30'0 0.0
2016-Jun-22 03:33N 48°51' W 123°30'0 0.0
2016-Jun-22 02:33N 48°51' W 123°30'0 0.0
2016-Jun-22 01:28N 48°51' W 123°30'0 0.0
2016-Jun-22 00:33N 48°51' W 123°30'0 0.0
2016-Jun-21 23:33N 48°51' W 123°30'0 0.0
2016-Jun-21 22:24N 48°51' W 123°30'0 0.0
2016-Jun-21 21:31N 48°51' W 123°30'0 0.0
2016-Jun-21 15:23N 48°51' W 123°30'0 0.0
2016-Jun-21 13:29N 48°51' W 123°30'0 0.0
2016-Jun-21 04:05N 48°51' W 123°30'0 0.0
2016-Jun-21 03:33N 48°51' W 123°30'0 0.0
2016-Jun-21 02:33N 48°51' W 123°30'0 0.0
2016-Jun-21 01:31N 48°51' W 123°30'0 0.0
2016-Jun-20 02:17N 48°51' W 123°30'0 0.0
2016-Jun-20 01:32N 48°51' W 123°30'0 0.0
2016-Jun-20 00:33N 48°51' W 123°30'0 0.0
2016-Jun-19 23:24N 48°51' W 123°30'0 0.3
2016-Jun-19 22:33N 48°51' W 123°30'1210.8
2016-Jun-19 21:27N 48°45' W 123°14'910.1
2016-Jun-19 20:33N 48°50' W 123°25'3 0.4
2016-Jun-19 12:30N 48°51' W 123°30'0 0.0
2016-Jun-18 18:18N 48°51' W 123°30'0 0.0
2016-Jun-18 16:13N 48°51' W 123°30'0 0.0
2016-Jun-18 15:30N 48°51' W 123°30'0 0.0
2016-Jun-18 14:26N 48°51' W 123°30'0 0.0
2016-Jun-18 13:15N 48°51' W 123°30'0 0.0
2016-Jun-18 12:27N 48°51' W 123°30'0 0.0
2016-Jun-18 10:09N 48°51' W 123°30'0 0.0
2016-Jun-18 09:23N 48°51' W 123°30'0 0.0
2016-Jun-18 08:33N 48°51' W 123°30'0 0.0
2016-Jun-18 06:04N 48°51' W 123°30'0 0.0
2016-Jun-18 02:15N 48°51' W 123°30'0 0.0
2016-Jun-18 01:31N 48°51' W 123°30'0 0.0
2016-Jun-18 00:28N 48°51' W 123°30'0 0.0
2016-Jun-17 23:32N 48°51' W 123°30'0 0.0
2016-Jun-17 17:31N 48°51' W 123°30'0 0.0
2016-Jun-17 16:21N 48°51' W 123°30'0 0.0
2016-Jun-17 14:31N 48°51' W 123°30'0 0.0
2016-Jun-17 13:33N 48°51' W 123°30'0 0.0
2016-Jun-17 12:32N 48°51' W 123°30'0 0.0
2016-Jun-17 11:33N 48°51' W 123°30'0 0.0
2016-Jun-17 10:33N 48°51' W 123°30'0 0.0
2016-Jun-17 09:33N 48°51' W 123°30'0 0.0
2016-Jun-17 08:33N 48°51' W 123°30'0 0.0
2016-Jun-17 07:31N 48°51' W 123°30'0 0.0
2016-Jun-17 05:23N 48°51' W 123°30'0 0.0
2016-Jun-17 04:15N 48°51' W 123°30'0 0.0
2016-Jun-17 03:33N 48°51' W 123°30'0 0.0
2016-Jun-17 02:33N 48°51' W 123°30'0 0.0
2016-Jun-17 01:33N 48°51' W 123°30'0 0.0
2016-Jun-16 23:33N 48°51' W 123°30'0 0.0
2016-Jun-16 21:16N 48°51' W 123°30'2 0.7
2016-Jun-16 17:31N 48°52' W 123°26'2 2.4
2016-Jun-16 16:30N 48°51' W 123°30'0 0.0
2016-Jun-16 14:22N 48°51' W 123°30'0 0.0
2016-Jun-16 13:31N 48°51' W 123°30'0 0.0
2016-Jun-16 12:29N 48°51' W 123°30'0 0.0
2016-Jun-16 11:31N 48°51' W 123°30'0 0.0
2016-Jun-16 10:33N 48°51' W 123°30'0 0.0
2016-Jun-16 09:33N 48°51' W 123°30'0 0.0
2016-Jun-16 08:31N 48°51' W 123°30'0 0.0
2016-Jun-16 07:29N 48°51' W 123°30'0 0.0
2016-Jun-16 06:13N 48°51' W 123°30'0 0.0
2016-Jun-16 05:25N 48°51' W 123°30'0 0.0
2016-Jun-16 04:33N 48°51' W 123°30'0 0.0
2016-Jun-16 03:32N 48°51' W 123°30'0 0.0
2016-Jun-16 02:29N 48°51' W 123°30'0 0.0
2016-Jun-16 01:29N 48°51' W 123°30'0 0.0
2016-Jun-16 00:31N 48°51' W 123°30'0 0.0
2016-Jun-15 23:33N 48°51' W 123°30'0 0.0
2016-Jun-15 22:32N 48°51' W 123°30'0 0.0
2016-Jun-15 21:33N 48°51' W 123°30'0 0.0
2016-Jun-15 20:33N 48°51' W 123°30'0 0.0
2016-Jun-15 19:33N 48°51' W 123°30'  

Dump ship's entire track history